sensor_id;sensor_type;location;lat;lon;timestamp;temperature;humidity
59313;DHT22;45084;51.486;7.366;2024-01-11T00:01:36;-7.80;99.90
59313;DHT22;45084;51.486;7.366;2024-01-11T00:04:01;-7.90;99.90
59313;DHT22;45084;51.486;7.366;2024-01-11T00:06:27;-7.90;99.90
59313;DHT22;45084;51.486;7.366;2024-01-11T00:08:52;-7.90;99.90
59313;DHT22;45084;51.486;7.366;2024-01-11T00:11:19;-7.90;99.90
59313;DHT22;45084;51.486;7.366;2024-01-11T00:13:44;-7.90;99.90
59313;DHT22;45084;51.486;7.366;2024-01-11T00:16:10;-7.90;99.90
59313;DHT22;45084;51.486;7.366;2024-01-11T00:18:35;-8.00;99.90
59313;DHT22;45084;51.486;7.366;2024-01-11T00:21:01;-8.00;99.90
59313;DHT22;45084;51.486;7.366;2024-01-11T00:23:27;-8.10;99.90
59313;DHT22;45084;51.486;7.366;2024-01-11T00:25:52;-8.00;99.90
59313;DHT22;45084;51.486;7.366;2024-01-11T00:28:18;-7.90;99.90
59313;DHT22;45084;51.486;7.366;2024-01-11T00:30:44;-8.00;99.90
59313;DHT22;45084;51.486;7.366;2024-01-11T00:33:09;-8.00;99.90
59313;DHT22;45084;51.486;7.366;2024-01-11T00:35:35;-8.00;99.90
59313;DHT22;45084;51.486;7.366;2024-01-11T00:38:01;-8.00;99.90
59313;DHT22;45084;51.486;7.366;2024-01-11T00:40:26;-8.00;99.90
59313;DHT22;45084;51.486;7.366;2024-01-11T00:42:52;-8.00;99.90
59313;DHT22;45084;51.486;7.366;2024-01-11T00:45:18;-8.10;99.90
59313;DHT22;45084;51.486;7.366;2024-01-11T00:47:43;-8.20;99.90
59313;DHT22;45084;51.486;7.366;2024-01-11T00:50:09;-8.20;99.90
59313;DHT22;45084;51.486;7.366;2024-01-11T00:52:35;-8.10;99.90
59313;DHT22;45084;51.486;7.366;2024-01-11T00:55:00;-8.10;99.90
59313;DHT22;45084;51.486;7.366;2024-01-11T00:57:26;-8.20;99.90
59313;DHT22;45084;51.486;7.366;2024-01-11T00:59:51;-8.10;99.90
59313;DHT22;45084;51.486;7.366;2024-01-11T01:02:19;-8.10;99.90
59313;DHT22;45084;51.486;7.366;2024-01-11T01:04:44;-8.10;99.90
59313;DHT22;45084;51.486;7.366;2024-01-11T01:07:10;-8.20;99.90
59313;DHT22;45084;51.486;7.366;2024-01-11T01:09:35;-8.20;99.90
59313;DHT22;45084;51.486;7.366;2024-01-11T01:12:01;-8.30;99.90
59313;DHT22;45084;51.486;7.366;2024-01-11T01:14:27;-8.20;99.90
59313;DHT22;45084;51.486;7.366;2024-01-11T01:16:52;-8.20;99.90
59313;DHT22;45084;51.486;7.366;2024-01-11T01:19:18;-8.30;99.90
59313;DHT22;45084;51.486;7.366;2024-01-11T01:21:43;-8.30;99.90
59313;DHT22;45084;51.486;7.366;2024-01-11T01:24:09;-8.30;99.90
59313;DHT22;45084;51.486;7.366;2024-01-11T01:26:35;-8.40;99.90
59313;DHT22;45084;51.486;7.366;2024-01-11T01:29:01;-8.40;99.90
59313;DHT22;45084;51.486;7.366;2024-01-11T01:31:26;-8.30;99.90
59313;DHT22;45084;51.486;7.366;2024-01-11T01:33:52;-8.30;99.90
59313;DHT22;45084;51.486;7.366;2024-01-11T01:36:17;-8.40;99.90
59313;DHT22;45084;51.486;7.366;2024-01-11T01:38:43;-8.40;99.90
59313;DHT22;45084;51.486;7.366;2024-01-11T01:41:08;-8.40;99.90
59313;DHT22;45084;51.486;7.366;2024-01-11T01:43:34;-8.40;99.90
59313;DHT22;45084;51.486;7.366;2024-01-11T01:46:00;-8.40;99.90
59313;DHT22;45084;51.486;7.366;2024-01-11T01:48:25;-8.40;99.90
59313;DHT22;45084;51.486;7.366;2024-01-11T01:50:51;-8.40;99.90
59313;DHT22;45084;51.486;7.366;2024-01-11T01:53:21;-8.50;99.90
59313;DHT22;45084;51.486;7.366;2024-01-11T01:55:47;-8.50;99.90
59313;DHT22;45084;51.486;7.366;2024-01-11T01:58:14;-8.50;99.90
59313;DHT22;45084;51.486;7.366;2024-01-11T02:00:41;-8.50;99.90
59313;DHT22;45084;51.486;7.366;2024-01-11T02:03:08;-8.40;99.90
59313;DHT22;45084;51.486;7.366;2024-01-11T02:05:33;-8.40;99.90
59313;DHT22;45084;51.486;7.366;2024-01-11T02:08:01;-8.50;99.90
59313;DHT22;45084;51.486;7.366;2024-01-11T02:10:30;-8.50;99.90
59313;DHT22;45084;51.486;7.366;2024-01-11T02:12:58;-8.50;99.90
59313;DHT22;45084;51.486;7.366;2024-01-11T02:15:24;-8.60;99.90
59313;DHT22;45084;51.486;7.366;2024-01-11T02:17:50;-8.60;99.90
59313;DHT22;45084;51.486;7.366;2024-01-11T02:20:15;-8.60;99.90
59313;DHT22;45084;51.486;7.366;2024-01-11T02:22:44;-8.50;99.90
59313;DHT22;45084;51.486;7.366;2024-01-11T02:25:12;-8.50;99.90
59313;DHT22;45084;51.486;7.366;2024-01-11T02:30:13;-8.60;99.90
59313;DHT22;45084;51.486;7.366;2024-01-11T02:32:38;-8.70;99.90
59313;DHT22;45084;51.486;7.366;2024-01-11T02:35:04;-8.70;99.90
59313;DHT22;45084;51.486;7.366;2024-01-11T02:37:30;-8.70;99.90
59313;DHT22;45084;51.486;7.366;2024-01-11T02:39:56;-8.70;99.90
59313;DHT22;45084;51.486;7.366;2024-01-11T02:42:22;-8.70;99.90
59313;DHT22;45084;51.486;7.366;2024-01-11T02:44:48;-8.70;99.90
59313;DHT22;45084;51.486;7.366;2024-01-11T02:47:13;-8.60;99.90
59313;DHT22;45084;51.486;7.366;2024-01-11T02:49:39;-8.60;99.90
59313;DHT22;45084;51.486;7.366;2024-01-11T02:52:04;-8.60;99.90
59313;DHT22;45084;51.486;7.366;2024-01-11T02:54:30;-8.70;99.90
59313;DHT22;45084;51.486;7.366;2024-01-11T02:56:56;-8.70;99.90
59313;DHT22;45084;51.486;7.366;2024-01-11T02:59:22;-8.70;99.90
59313;DHT22;45084;51.486;7.366;2024-01-11T03:01:49;-8.70;99.90
59313;DHT22;45084;51.486;7.366;2024-01-11T03:04:15;-8.70;99.90
59313;DHT22;45084;51.486;7.366;2024-01-11T03:06:41;-8.70;99.90
59313;DHT22;45084;51.486;7.366;2024-01-11T03:09:06;-8.80;99.90
59313;DHT22;45084;51.486;7.366;2024-01-11T03:11:32;-8.80;99.90
59313;DHT22;45084;51.486;7.366;2024-01-11T03:14:00;-8.80;99.90
59313;DHT22;45084;51.486;7.366;2024-01-11T03:16:27;-8.90;99.90
59313;DHT22;45084;51.486;7.366;2024-01-11T03:18:53;-8.80;99.90
59313;DHT22;45084;51.486;7.366;2024-01-11T03:21:19;-8.80;99.90
59313;DHT22;45084;51.486;7.366;2024-01-11T03:23:44;-8.80;99.90
59313;DHT22;45084;51.486;7.366;2024-01-11T03:26:17;-8.70;99.90
59313;DHT22;45084;51.486;7.366;2024-01-11T03:28:43;-8.90;99.90
59313;DHT22;45084;51.486;7.366;2024-01-11T03:31:09;-8.90;99.90
59313;DHT22;45084;51.486;7.366;2024-01-11T03:33:35;-8.90;99.90
59313;DHT22;45084;51.486;7.366;2024-01-11T03:36:08;-8.90;99.90
59313;DHT22;45084;51.486;7.366;2024-01-11T03:38:34;-8.90;99.90
59313;DHT22;45084;51.486;7.366;2024-01-11T03:40:59;-8.90;99.90
59313;DHT22;45084;51.486;7.366;2024-01-11T03:43:25;-9.00;99.90
59313;DHT22;45084;51.486;7.366;2024-01-11T03:45:50;-9.00;99.90
59313;DHT22;45084;51.486;7.366;2024-01-11T03:48:16;-9.00;99.90
59313;DHT22;45084;51.486;7.366;2024-01-11T03:50:41;-9.00;99.90
59313;DHT22;45084;51.486;7.366;2024-01-11T03:53:07;-9.00;99.90
59313;DHT22;45084;51.486;7.366;2024-01-11T03:55:33;-9.10;99.90
59313;DHT22;45084;51.486;7.366;2024-01-11T03:57:59;-9.10;99.90
59313;DHT22;45084;51.486;7.366;2024-01-11T04:00:24;-9.10;99.90
59313;DHT22;45084;51.486;7.366;2024-01-11T04:02:50;-9.00;99.90
59313;DHT22;45084;51.486;7.366;2024-01-11T04:05:15;-9.00;99.90
59313;DHT22;45084;51.486;7.366;2024-01-11T04:07:41;-9.10;99.90
59313;DHT22;45084;51.486;7.366;2024-01-11T04:10:07;-9.00;99.90
59313;DHT22;45084;51.486;7.366;2024-01-11T04:12:35;-9.10;99.90
59313;DHT22;45084;51.486;7.366;2024-01-11T04:15:02;-9.10;99.90
59313;DHT22;45084;51.486;7.366;2024-01-11T04:17:27;-9.10;99.90
59313;DHT22;45084;51.486;7.366;2024-01-11T04:19:53;-9.00;99.90
59313;DHT22;45084;51.486;7.366;2024-01-11T04:22:18;-9.20;99.90
59313;DHT22;45084;51.486;7.366;2024-01-11T04:24:44;-9.20;99.90
59313;DHT22;45084;51.486;7.366;2024-01-11T04:27:10;-9.20;99.90
59313;DHT22;45084;51.486;7.366;2024-01-11T04:29:36;-9.20;99.90
59313;DHT22;45084;51.486;7.366;2024-01-11T04:32:03;-9.20;99.90
59313;DHT22;45084;51.486;7.366;2024-01-11T04:34:28;-9.10;99.90
59313;DHT22;45084;51.486;7.366;2024-01-11T04:36:54;-9.20;99.90
59313;DHT22;45084;51.486;7.366;2024-01-11T04:39:20;-9.20;99.90
59313;DHT22;45084;51.486;7.366;2024-01-11T04:41:45;-9.20;99.90
59313;DHT22;45084;51.486;7.366;2024-01-11T04:44:11;-9.20;99.90
59313;DHT22;45084;51.486;7.366;2024-01-11T04:46:37;-9.20;99.90
59313;DHT22;45084;51.486;7.366;2024-01-11T04:49:02;-9.30;99.90
59313;DHT22;45084;51.486;7.366;2024-01-11T04:51:28;-9.30;99.90
59313;DHT22;45084;51.486;7.366;2024-01-11T04:53:53;-9.30;99.90
59313;DHT22;45084;51.486;7.366;2024-01-11T04:56:19;-9.20;99.90
59313;DHT22;45084;51.486;7.366;2024-01-11T04:58:45;-9.20;99.90
59313;DHT22;45084;51.486;7.366;2024-01-11T05:01:12;-9.10;99.90
59313;DHT22;45084;51.486;7.366;2024-01-11T05:03:38;-9.20;99.90
59313;DHT22;45084;51.486;7.366;2024-01-11T05:06:04;-9.20;99.90
59313;DHT22;45084;51.486;7.366;2024-01-11T05:08:29;-9.20;99.90
59313;DHT22;45084;51.486;7.366;2024-01-11T05:10:55;-9.20;99.90
59313;DHT22;45084;51.486;7.366;2024-01-11T05:13:20;-9.20;99.90
59313;DHT22;45084;51.486;7.366;2024-01-11T05:15:46;-9.20;99.90
59313;DHT22;45084;51.486;7.366;2024-01-11T05:18:12;-9.20;99.90
59313;DHT22;45084;51.486;7.366;2024-01-11T05:20:38;-9.30;99.90
59313;DHT22;45084;51.486;7.366;2024-01-11T05:23:04;-9.30;99.90
59313;DHT22;45084;51.486;7.366;2024-01-11T05:25:31;-9.30;99.90
59313;DHT22;45084;51.486;7.366;2024-01-11T05:28:02;-9.30;99.90
59313;DHT22;45084;51.486;7.366;2024-01-11T05:30:29;-9.30;99.90
59313;DHT22;45084;51.486;7.366;2024-01-11T05:32:54;-9.30;99.90
59313;DHT22;45084;51.486;7.366;2024-01-11T05:35:20;-9.10;99.90
59313;DHT22;45084;51.486;7.366;2024-01-11T05:37:47;-9.20;99.90
59313;DHT22;45084;51.486;7.366;2024-01-11T05:40:12;-9.20;99.90
59313;DHT22;45084;51.486;7.366;2024-01-11T05:42:39;-9.10;99.90
59313;DHT22;45084;51.486;7.366;2024-01-11T05:45:05;-9.10;99.90
59313;DHT22;45084;51.486;7.366;2024-01-11T05:47:34;-9.00;99.90
59313;DHT22;45084;51.486;7.366;2024-01-11T05:49:59;-8.90;99.90
59313;DHT22;45084;51.486;7.366;2024-01-11T05:52:25;-9.00;99.90
59313;DHT22;45084;51.486;7.366;2024-01-11T05:54:53;-9.00;99.90
59313;DHT22;45084;51.486;7.366;2024-01-11T05:57:21;-9.10;99.90
59313;DHT22;45084;51.486;7.366;2024-01-11T05:59:46;-9.00;99.90
59313;DHT22;45084;51.486;7.366;2024-01-11T06:02:13;-9.20;99.90
59313;DHT22;45084;51.486;7.366;2024-01-11T06:04:39;-9.20;99.90
59313;DHT22;45084;51.486;7.366;2024-01-11T06:07:05;-9.30;99.90
59313;DHT22;45084;51.486;7.366;2024-01-11T06:09:30;-9.20;99.90
59313;DHT22;45084;51.486;7.366;2024-01-11T06:11:56;-9.20;99.90
59313;DHT22;45084;51.486;7.366;2024-01-11T06:14:22;-9.20;99.90
59313;DHT22;45084;51.486;7.366;2024-01-11T06:16:47;-9.30;99.90
59313;DHT22;45084;51.486;7.366;2024-01-11T06:19:13;-9.30;99.90
59313;DHT22;45084;51.486;7.366;2024-01-11T06:21:38;-9.10;99.90
59313;DHT22;45084;51.486;7.366;2024-01-11T06:24:04;-9.20;99.90
59313;DHT22;45084;51.486;7.366;2024-01-11T06:26:29;-9.20;99.90
59313;DHT22;45084;51.486;7.366;2024-01-11T06:28:55;-9.10;99.90
59313;DHT22;45084;51.486;7.366;2024-01-11T06:31:21;-9.10;99.90
59313;DHT22;45084;51.486;7.366;2024-01-11T06:33:46;-9.20;99.90
59313;DHT22;45084;51.486;7.366;2024-01-11T06:36:12;-9.10;99.90
59313;DHT22;45084;51.486;7.366;2024-01-11T06:38:38;-8.90;99.90
59313;DHT22;45084;51.486;7.366;2024-01-11T06:41:03;-8.80;99.90
59313;DHT22;45084;51.486;7.366;2024-01-11T06:43:29;-8.70;99.90
59313;DHT22;45084;51.486;7.366;2024-01-11T06:45:54;-8.70;99.90
59313;DHT22;45084;51.486;7.366;2024-01-11T06:48:20;-8.80;99.90
59313;DHT22;45084;51.486;7.366;2024-01-11T06:50:46;-8.90;99.90
59313;DHT22;45084;51.486;7.366;2024-01-11T06:53:11;-9.00;99.90
59313;DHT22;45084;51.486;7.366;2024-01-11T06:55:37;-9.10;99.90
59313;DHT22;45084;51.486;7.366;2024-01-11T06:58:02;-9.00;99.90
59313;DHT22;45084;51.486;7.366;2024-01-11T07:00:28;-9.10;99.90
59313;DHT22;45084;51.486;7.366;2024-01-11T07:02:53;-9.10;99.90
59313;DHT22;45084;51.486;7.366;2024-01-11T07:05:19;-9.10;99.90
59313;DHT22;45084;51.486;7.366;2024-01-11T07:07:45;-9.10;99.90
59313;DHT22;45084;51.486;7.366;2024-01-11T07:10:10;-9.00;99.90
59313;DHT22;45084;51.486;7.366;2024-01-11T07:12:37;-9.00;99.90
59313;DHT22;45084;51.486;7.366;2024-01-11T07:15:04;-9.00;99.90
59313;DHT22;45084;51.486;7.366;2024-01-11T07:17:30;-9.00;99.90
59313;DHT22;45084;51.486;7.366;2024-01-11T07:19:56;-9.00;99.90
59313;DHT22;45084;51.486;7.366;2024-01-11T07:22:21;-9.00;99.90
59313;DHT22;45084;51.486;7.366;2024-01-11T07:24:47;-9.00;99.90
59313;DHT22;45084;51.486;7.366;2024-01-11T07:27:12;-9.00;99.90
59313;DHT22;45084;51.486;7.366;2024-01-11T07:29:38;-9.00;99.90
59313;DHT22;45084;51.486;7.366;2024-01-11T07:32:04;-9.10;99.90
59313;DHT22;45084;51.486;7.366;2024-01-11T07:34:29;-9.10;99.90
59313;DHT22;45084;51.486;7.366;2024-01-11T07:36:55;-9.10;99.90
59313;DHT22;45084;51.486;7.366;2024-01-11T07:39:22;-9.10;99.90
59313;DHT22;45084;51.486;7.366;2024-01-11T07:41:48;-9.10;99.90
59313;DHT22;45084;51.486;7.366;2024-01-11T07:44:14;-9.10;99.90
59313;DHT22;45084;51.486;7.366;2024-01-11T07:46:39;-9.10;99.90
59313;DHT22;45084;51.486;7.366;2024-01-11T07:49:06;-9.10;99.90
59313;DHT22;45084;51.486;7.366;2024-01-11T07:51:32;-9.00;99.90
59313;DHT22;45084;51.486;7.366;2024-01-11T07:53:57;-9.00;99.90
59313;DHT22;45084;51.486;7.366;2024-01-11T07:56:25;-8.90;99.90
59313;DHT22;45084;51.486;7.366;2024-01-11T07:58:51;-8.90;99.90
59313;DHT22;45084;51.486;7.366;2024-01-11T08:01:19;-8.80;99.90
59313;DHT22;45084;51.486;7.366;2024-01-11T08:03:45;-8.80;99.90
59313;DHT22;45084;51.486;7.366;2024-01-11T08:06:10;-8.70;99.90
59313;DHT22;45084;51.486;7.366;2024-01-11T08:08:37;-8.70;99.90
59313;DHT22;45084;51.486;7.366;2024-01-11T08:11:04;-8.60;99.90
59313;DHT22;45084;51.486;7.366;2024-01-11T08:13:30;-8.60;99.90
59313;DHT22;45084;51.486;7.366;2024-01-11T08:15:57;-8.50;99.90
59313;DHT22;45084;51.486;7.366;2024-01-11T08:18:23;-8.50;99.90
59313;DHT22;45084;51.486;7.366;2024-01-11T08:20:49;-8.50;99.90
59313;DHT22;45084;51.486;7.366;2024-01-11T08:23:14;-8.40;99.90
59313;DHT22;45084;51.486;7.366;2024-01-11T08:25:40;-8.40;99.90
59313;DHT22;45084;51.486;7.366;2024-01-11T08:28:06;-8.40;99.90
59313;DHT22;45084;51.486;7.366;2024-01-11T08:30:32;-8.30;99.90
59313;DHT22;45084;51.486;7.366;2024-01-11T08:32:58;-8.20;99.90
59313;DHT22;45084;51.486;7.366;2024-01-11T08:35:23;-8.20;99.90
59313;DHT22;45084;51.486;7.366;2024-01-11T08:37:49;-8.20;99.90
59313;DHT22;45084;51.486;7.366;2024-01-11T08:40:15;-8.10;99.90
59313;DHT22;45084;51.486;7.366;2024-01-11T08:42:41;-8.10;99.90
59313;DHT22;45084;51.486;7.366;2024-01-11T08:45:08;-8.00;99.90
59313;DHT22;45084;51.486;7.366;2024-01-11T08:47:34;-7.90;99.90
59313;DHT22;45084;51.486;7.366;2024-01-11T08:50:00;-7.80;99.90
59313;DHT22;45084;51.486;7.366;2024-01-11T08:52:26;-7.60;99.90
59313;DHT22;45084;51.486;7.366;2024-01-11T08:54:51;-7.60;99.90
59313;DHT22;45084;51.486;7.366;2024-01-11T08:57:17;-7.40;99.90
59313;DHT22;45084;51.486;7.366;2024-01-11T08:59:43;-7.00;99.90
59313;DHT22;45084;51.486;7.366;2024-01-11T09:02:09;-6.90;99.90
59313;DHT22;45084;51.486;7.366;2024-01-11T09:04:36;-6.80;99.90
59313;DHT22;45084;51.486;7.366;2024-01-11T09:07:01;-6.80;99.90
59313;DHT22;45084;51.486;7.366;2024-01-11T09:09:27;-6.70;99.90
59313;DHT22;45084;51.486;7.366;2024-01-11T09:11:53;-6.60;99.90
59313;DHT22;45084;51.486;7.366;2024-01-11T09:14:18;-6.50;99.90
59313;DHT22;45084;51.486;7.366;2024-01-11T09:16:44;-6.30;99.90
59313;DHT22;45084;51.486;7.366;2024-01-11T09:19:11;-6.20;99.90
59313;DHT22;45084;51.486;7.366;2024-01-11T09:21:37;-6.00;99.90
59313;DHT22;45084;51.486;7.366;2024-01-11T09:24:03;-5.80;99.90
59313;DHT22;45084;51.486;7.366;2024-01-11T09:26:28;-5.70;99.90
59313;DHT22;45084;51.486;7.366;2024-01-11T09:28:54;-5.60;99.90
59313;DHT22;45084;51.486;7.366;2024-01-11T09:31:19;-5.60;99.90
59313;DHT22;45084;51.486;7.366;2024-01-11T09:33:45;-5.40;99.90
59313;DHT22;45084;51.486;7.366;2024-01-11T09:36:11;-5.50;99.90
59313;DHT22;45084;51.486;7.366;2024-01-11T09:38:37;-5.50;99.90
59313;DHT22;45084;51.486;7.366;2024-01-11T09:41:07;-5.40;99.90
59313;DHT22;45084;51.486;7.366;2024-01-11T09:43:34;-5.30;99.90
59313;DHT22;45084;51.486;7.366;2024-01-11T09:46:03;-5.20;99.90
59313;DHT22;45084;51.486;7.366;2024-01-11T09:48:30;-5.10;99.90
59313;DHT22;45084;51.486;7.366;2024-01-11T09:50:57;-4.90;99.90
59313;DHT22;45084;51.486;7.366;2024-01-11T09:53:24;-4.80;99.90
59313;DHT22;45084;51.486;7.366;2024-01-11T09:55:52;-4.70;99.90
59313;DHT22;45084;51.486;7.366;2024-01-11T09:58:19;-4.70;99.90
59313;DHT22;45084;51.486;7.366;2024-01-11T10:00:46;-4.60;99.90
59313;DHT22;45084;51.486;7.366;2024-01-11T10:03:14;-4.60;99.90
59313;DHT22;45084;51.486;7.366;2024-01-11T10:05:40;-4.50;99.90
59313;DHT22;45084;51.486;7.366;2024-01-11T10:08:07;-4.60;99.90
59313;DHT22;45084;51.486;7.366;2024-01-11T10:10:33;-4.50;99.90
59313;DHT22;45084;51.486;7.366;2024-01-11T10:12:59;-4.50;99.90
59313;DHT22;45084;51.486;7.366;2024-01-11T10:15:25;-4.30;99.90
59313;DHT22;45084;51.486;7.366;2024-01-11T10:17:50;-4.30;99.90
59313;DHT22;45084;51.486;7.366;2024-01-11T10:20:16;-4.20;99.90
59313;DHT22;45084;51.486;7.366;2024-01-11T10:22:49;-4.10;99.90
59313;DHT22;45084;51.486;7.366;2024-01-11T10:25:16;-4.00;99.90
59313;DHT22;45084;51.486;7.366;2024-01-11T10:27:43;-3.90;99.90
59313;DHT22;45084;51.486;7.366;2024-01-11T10:30:11;-3.90;99.90
59313;DHT22;45084;51.486;7.366;2024-01-11T10:32:41;-3.90;99.90
59313;DHT22;45084;51.486;7.366;2024-01-11T10:35:07;-3.80;99.90
59313;DHT22;45084;51.486;7.366;2024-01-11T10:37:32;-3.70;99.90
59313;DHT22;45084;51.486;7.366;2024-01-11T10:40:03;-3.50;99.90
59313;DHT22;45084;51.486;7.366;2024-01-11T10:42:31;-3.50;99.90
59313;DHT22;45084;51.486;7.366;2024-01-11T10:44:59;-3.40;99.90
59313;DHT22;45084;51.486;7.366;2024-01-11T10:47:30;-3.40;99.90
59313;DHT22;45084;51.486;7.366;2024-01-11T10:49:57;-3.30;99.90
59313;DHT22;45084;51.486;7.366;2024-01-11T10:52:28;-3.30;99.90
59313;DHT22;45084;51.486;7.366;2024-01-11T10:54:58;-3.00;99.90
59313;DHT22;45084;51.486;7.366;2024-01-11T10:57:24;-2.90;99.90
59313;DHT22;45084;51.486;7.366;2024-01-11T10:59:51;-3.00;99.90
59313;DHT22;45084;51.486;7.366;2024-01-11T11:02:18;-3.00;99.90
59313;DHT22;45084;51.486;7.366;2024-01-11T11:04:45;-3.00;99.90
59313;DHT22;45084;51.486;7.366;2024-01-11T11:07:15;-2.90;99.90
59313;DHT22;45084;51.486;7.366;2024-01-11T11:09:42;-2.80;99.90
59313;DHT22;45084;51.486;7.366;2024-01-11T11:12:13;-2.90;99.90
59313;DHT22;45084;51.486;7.366;2024-01-11T11:14:40;-2.80;99.90
59313;DHT22;45084;51.486;7.366;2024-01-11T11:17:06;-2.80;99.90
59313;DHT22;45084;51.486;7.366;2024-01-11T11:19:31;-2.80;99.90
59313;DHT22;45084;51.486;7.366;2024-01-11T11:21:57;-2.70;99.90
59313;DHT22;45084;51.486;7.366;2024-01-11T11:24:23;-2.50;99.90
59313;DHT22;45084;51.486;7.366;2024-01-11T11:26:48;-2.30;99.90
59313;DHT22;45084;51.486;7.366;2024-01-11T11:29:15;-2.10;99.90
59313;DHT22;45084;51.486;7.366;2024-01-11T11:31:45;-1.90;99.90
59313;DHT22;45084;51.486;7.366;2024-01-11T11:34:13;-1.80;99.90
59313;DHT22;45084;51.486;7.366;2024-01-11T11:36:42;-1.80;99.90
59313;DHT22;45084;51.486;7.366;2024-01-11T11:39:10;-1.80;99.90
59313;DHT22;45084;51.486;7.366;2024-01-11T11:41:37;-1.70;99.90
59313;DHT22;45084;51.486;7.366;2024-01-11T11:44:05;-1.70;99.90
59313;DHT22;45084;51.486;7.366;2024-01-11T11:46:34;-1.60;99.90
59313;DHT22;45084;51.486;7.366;2024-01-11T11:49:00;-1.50;99.90
59313;DHT22;45084;51.486;7.366;2024-01-11T11:51:28;-1.50;99.90
59313;DHT22;45084;51.486;7.366;2024-01-11T11:53:54;-1.40;99.90
59313;DHT22;45084;51.486;7.366;2024-01-11T11:56:21;-1.40;99.90
59313;DHT22;45084;51.486;7.366;2024-01-11T11:58:47;-1.40;99.90
59313;DHT22;45084;51.486;7.366;2024-01-11T12:01:15;-1.40;99.90
59313;DHT22;45084;51.486;7.366;2024-01-11T12:03:43;-1.50;99.90
59313;DHT22;45084;51.486;7.366;2024-01-11T12:06:14;-1.30;99.90
59313;DHT22;45084;51.486;7.366;2024-01-11T12:08:42;-1.30;99.90
59313;DHT22;45084;51.486;7.366;2024-01-11T12:11:08;-1.30;99.90
59313;DHT22;45084;51.486;7.366;2024-01-11T12:13:34;-1.30;99.90
59313;DHT22;45084;51.486;7.366;2024-01-11T12:16:00;-1.20;99.90
59313;DHT22;45084;51.486;7.366;2024-01-11T12:18:26;-1.30;99.90
59313;DHT22;45084;51.486;7.366;2024-01-11T12:20:51;-1.30;99.90
59313;DHT22;45084;51.486;7.366;2024-01-11T12:23:20;-1.20;99.90
59313;DHT22;45084;51.486;7.366;2024-01-11T12:25:46;-1.10;99.90
59313;DHT22;45084;51.486;7.366;2024-01-11T12:28:12;-0.90;99.90
59313;DHT22;45084;51.486;7.366;2024-01-11T12:30:38;-0.80;99.90
59313;DHT22;45084;51.486;7.366;2024-01-11T12:33:04;-0.90;99.90
59313;DHT22;45084;51.486;7.366;2024-01-11T12:35:30;-0.90;99.90
59313;DHT22;45084;51.486;7.366;2024-01-11T12:38:08;-0.90;99.90
59313;DHT22;45084;51.486;7.366;2024-01-11T12:40:37;-0.90;99.90
59313;DHT22;45084;51.486;7.366;2024-01-11T12:43:07;-0.80;99.90
59313;DHT22;45084;51.486;7.366;2024-01-11T12:45:34;-0.80;99.90
59313;DHT22;45084;51.486;7.366;2024-01-11T12:48:03;-0.80;99.90
59313;DHT22;45084;51.486;7.366;2024-01-11T12:50:33;-0.80;99.90
59313;DHT22;45084;51.486;7.366;2024-01-11T12:53:15;-0.80;99.90
59313;DHT22;45084;51.486;7.366;2024-01-11T12:55:44;-0.70;99.90
59313;DHT22;45084;51.486;7.366;2024-01-11T12:58:10;-0.70;99.90
59313;DHT22;45084;51.486;7.366;2024-01-11T13:00:36;-0.70;99.90
59313;DHT22;45084;51.486;7.366;2024-01-11T13:03:03;-0.70;99.90
59313;DHT22;45084;51.486;7.366;2024-01-11T13:05:29;-0.60;99.90
59313;DHT22;45084;51.486;7.366;2024-01-11T13:08:00;-0.60;99.90
59313;DHT22;45084;51.486;7.366;2024-01-11T13:10:27;-0.70;99.90
59313;DHT22;45084;51.486;7.366;2024-01-11T13:12:54;-0.70;99.90
59313;DHT22;45084;51.486;7.366;2024-01-11T13:15:20;-0.70;99.90
59313;DHT22;45084;51.486;7.366;2024-01-11T13:17:45;-0.60;99.90
59313;DHT22;45084;51.486;7.366;2024-01-11T13:20:11;-0.70;99.90
59313;DHT22;45084;51.486;7.366;2024-01-11T13:22:36;-0.80;99.90
59313;DHT22;45084;51.486;7.366;2024-01-11T13:25:02;-0.80;99.90
59313;DHT22;45084;51.486;7.366;2024-01-11T13:27:28;-0.80;99.90
59313;DHT22;45084;51.486;7.366;2024-01-11T13:29:53;-0.80;99.90
59313;DHT22;45084;51.486;7.366;2024-01-11T13:32:19;-0.60;99.90
59313;DHT22;45084;51.486;7.366;2024-01-11T13:34:47;-0.60;99.90
59313;DHT22;45084;51.486;7.366;2024-01-11T13:37:13;-0.60;99.90
59313;DHT22;45084;51.486;7.366;2024-01-11T13:39:38;-0.60;99.90
59313;DHT22;45084;51.486;7.366;2024-01-11T13:42:04;-0.60;99.90
59313;DHT22;45084;51.486;7.366;2024-01-11T13:44:34;-0.70;99.90
59313;DHT22;45084;51.486;7.366;2024-01-11T13:47:00;-0.70;99.90
59313;DHT22;45084;51.486;7.366;2024-01-11T13:49:26;-0.80;99.90
59313;DHT22;45084;51.486;7.366;2024-01-11T13:51:54;-0.80;99.90
59313;DHT22;45084;51.486;7.366;2024-01-11T13:54:20;-0.60;99.90
59313;DHT22;45084;51.486;7.366;2024-01-11T13:56:47;-0.60;99.90
59313;DHT22;45084;51.486;7.366;2024-01-11T13:59:13;-0.70;99.90
59313;DHT22;45084;51.486;7.366;2024-01-11T14:01:39;-0.70;99.90
59313;DHT22;45084;51.486;7.366;2024-01-11T14:04:05;-0.70;99.90
59313;DHT22;45084;51.486;7.366;2024-01-11T14:06:30;-0.70;99.90
59313;DHT22;45084;51.486;7.366;2024-01-11T14:08:56;-0.70;99.90
59313;DHT22;45084;51.486;7.366;2024-01-11T14:11:22;-0.80;99.90
59313;DHT22;45084;51.486;7.366;2024-01-11T14:13:47;-0.80;99.90
59313;DHT22;45084;51.486;7.366;2024-01-11T14:16:13;-0.90;99.90
59313;DHT22;45084;51.486;7.366;2024-01-11T14:18:41;-0.80;99.90
59313;DHT22;45084;51.486;7.366;2024-01-11T14:21:06;-0.90;99.90
59313;DHT22;45084;51.486;7.366;2024-01-11T14:23:32;-1.00;99.90
59313;DHT22;45084;51.486;7.366;2024-01-11T14:25:58;-1.00;99.90
59313;DHT22;45084;51.486;7.366;2024-01-11T14:28:23;-0.90;99.90
59313;DHT22;45084;51.486;7.366;2024-01-11T14:30:49;-0.90;99.90
59313;DHT22;45084;51.486;7.366;2024-01-11T14:33:15;-0.80;99.90
59313;DHT22;45084;51.486;7.366;2024-01-11T14:35:41;-0.80;99.90
59313;DHT22;45084;51.486;7.366;2024-01-11T14:38:06;-0.90;99.90
59313;DHT22;45084;51.486;7.366;2024-01-11T14:40:32;-0.90;99.90
59313;DHT22;45084;51.486;7.366;2024-01-11T14:42:57;-0.90;99.90
59313;DHT22;45084;51.486;7.366;2024-01-11T14:45:23;-1.00;99.90
59313;DHT22;45084;51.486;7.366;2024-01-11T14:47:48;-1.00;99.90
59313;DHT22;45084;51.486;7.366;2024-01-11T14:50:14;-1.00;99.90
59313;DHT22;45084;51.486;7.366;2024-01-11T14:52:40;-0.80;99.90
59313;DHT22;45084;51.486;7.366;2024-01-11T14:55:06;-0.70;99.90
59313;DHT22;45084;51.486;7.366;2024-01-11T14:57:32;-0.60;99.90
59313;DHT22;45084;51.486;7.366;2024-01-11T14:59:58;-0.60;99.90
59313;DHT22;45084;51.486;7.366;2024-01-11T15:02:23;-0.60;99.90
59313;DHT22;45084;51.486;7.366;2024-01-11T15:04:49;-0.50;99.90
59313;DHT22;45084;51.486;7.366;2024-01-11T15:07:15;-0.60;99.90
59313;DHT22;45084;51.486;7.366;2024-01-11T15:09:40;-0.60;99.90
59313;DHT22;45084;51.486;7.366;2024-01-11T15:12:06;-0.60;99.90
59313;DHT22;45084;51.486;7.366;2024-01-11T15:14:32;-0.60;99.90
59313;DHT22;45084;51.486;7.366;2024-01-11T15:16:57;-0.60;99.90
59313;DHT22;45084;51.486;7.366;2024-01-11T15:19:23;-0.60;99.90
59313;DHT22;45084;51.486;7.366;2024-01-11T15:21:49;-0.70;99.90
59313;DHT22;45084;51.486;7.366;2024-01-11T15:24:16;-0.80;99.90
59313;DHT22;45084;51.486;7.366;2024-01-11T15:26:44;-0.90;99.90